Archival Weather

Republic

Farmingdale, New York (KFRG)

Report from: Wednesday, February 21, 2024 9:53 PM EST
Current time: Friday, June 14, 2024 8:51 AM EDT

Current weather – Weather history – Daily summaries
Weather forecast

Temperature2.2°C (36.0°F)
Wind chill0.0°C (32.1°F)
Dew point-3.9°C (25.0°F)
Winds 4 kts (2.1 m/s, 4.6 mph) East (100°)
Visibility10 mi. (16.1 km)
Clouds Ceiling: Overcast 2,700 ft. (823 m)
Altimeter30.31 in.Hg (1026 mB)
Relative humidity64 %
Density altitude-1,934 ft. (-589 m)
Sea-level pressure102.7 kPa (1027 mB, 30.31 in.Hg)
Remarks Automated weather observing station without precipitation discriminator
Pressure falling more slowly
Flight conditions Marginal Visual Meteorological Conditions
Raw dataKFRG 220253Z 10004KT 10SM OVC027 02/M04 A3031 RMK AO1 SLP265 T00221039 56010
An error has occurred. This application may no longer respond until reloaded. Reload 🗙